createdAt,value
2018-09-23T00:00:08.138Z,2.92
2018-09-23T00:02:39.642Z,1.80
2018-09-23T00:05:10.475Z,4.37
2018-09-23T00:07:42.479Z,5.00
2018-09-23T00:10:12.489Z,3.20
2018-09-23T00:12:44.633Z,5.10
2018-09-23T00:15:14.556Z,4.37
2018-09-23T00:17:53.564Z,4.50
2018-09-23T00:20:34.578Z,5.25
2018-09-23T00:23:07.343Z,5.28
2018-09-23T00:25:45.050Z,5.40
2018-09-23T00:28:18.433Z,5.30
2018-09-23T00:30:55.330Z,5.45
2018-09-23T00:33:26.527Z,4.40
2018-09-23T00:38:37.325Z,5.92
2018-09-23T00:41:07.357Z,6.25
2018-09-23T00:43:39.398Z,4.60
2018-09-23T00:46:10.978Z,7.92
2018-09-23T00:48:42.048Z,4.60
2018-09-23T00:51:13.264Z,8.40
2018-09-23T00:53:43.248Z,7.15
2018-09-23T00:56:13.474Z,7.60
2018-09-23T00:58:44.158Z,7.35
2018-09-23T01:01:15.370Z,7.55
2018-09-23T01:03:51.672Z,6.42
2018-09-23T01:06:23.489Z,8.95
2018-09-23T01:08:55.422Z,8.33
2018-09-23T01:11:27.550Z,7.87
2018-09-23T01:13:58.767Z,5.10
2018-09-23T01:16:28.884Z,4.42
2018-09-23T01:18:59.310Z,6.12
2018-09-23T01:21:29.894Z,3.00
2018-09-23T01:23:59.862Z,8.48
2018-09-23T01:26:30.049Z,7.60
2018-09-23T01:29:01.818Z,10.05
2018-09-23T01:31:32.193Z,6.35
2018-09-23T01:34:02.463Z,5.65
2018-09-23T01:36:32.662Z,9.90
2018-09-23T01:39:02.992Z,8.83
2018-09-23T01:41:34.082Z,4.45
2018-09-23T01:44:04.723Z,11.22
2018-09-23T01:46:46.156Z,9.38
2018-09-23T01:49:16.581Z,9.03
2018-09-23T01:51:46.745Z,11.40
2018-09-23T01:54:16.967Z,7.87
2018-09-23T01:56:47.046Z,13.15
2018-09-23T01:59:17.610Z,9.60
2018-09-23T02:01:47.942Z,11.22
2018-09-23T02:04:18.222Z,10.75
2018-09-23T02:06:48.712Z,12.82
2018-09-23T02:09:18.463Z,10.70
2018-09-23T02:11:48.583Z,5.92
2018-09-23T02:14:18.702Z,9.30
2018-09-23T02:16:50.917Z,6.58
2018-09-23T02:19:22.622Z,9.53
2018-09-23T02:21:53.094Z,8.95
2018-09-23T02:24:23.311Z,3.52
2018-09-23T02:26:53.747Z,10.05
2018-09-23T02:29:25.565Z,6.62
2018-09-23T02:31:58.298Z,12.73
2018-09-23T02:34:29.198Z,13.88
2018-09-23T02:37:02.161Z,14.10
2018-09-23T02:39:32.129Z,13.25
2018-09-23T02:42:02.129Z,11.80
2018-09-23T02:44:32.408Z,9.18
2018-09-23T02:47:02.680Z,10.82
2018-09-23T02:49:32.956Z,10.18
2018-09-23T02:52:04.200Z,7.42
2018-09-23T02:54:36.191Z,9.35
2018-09-23T02:57:06.119Z,8.03
2018-09-23T02:59:39.725Z,10.32
2018-09-23T03:02:09.390Z,12.65
2018-09-23T03:04:40.429Z,7.70
2018-09-23T03:07:11.770Z,9.65
2018-09-23T03:09:44.937Z,12.63
2018-09-23T03:12:17.717Z,13.00
2018-09-23T03:14:49.917Z,14.03
2018-09-23T03:17:22.770Z,14.13
2018-09-23T03:19:53.151Z,7.42
2018-09-23T03:22:23.133Z,14.07
2018-09-23T03:24:55.817Z,10.75
2018-09-23T03:27:29.008Z,9.10
2018-09-23T03:30:00.514Z,15.03
2018-09-23T03:32:30.514Z,13.60
2018-09-23T03:35:02.291Z,15.43
2018-09-23T03:37:32.611Z,7.22
2018-09-23T03:40:03.390Z,7.65
2018-09-23T03:42:34.690Z,14.47
2018-09-23T03:45:05.825Z,15.60
2018-09-23T03:47:35.908Z,16.52
2018-09-23T03:50:06.223Z,9.55
2018-09-23T03:52:36.252Z,14.68
2018-09-23T03:55:09.219Z,17.92
2018-09-23T03:57:39.704Z,18.80
2018-09-23T04:00:09.875Z,18.52
2018-09-23T04:02:41.115Z,18.62
2018-09-23T04:05:12.009Z,14.83
2018-09-23T04:07:42.495Z,13.55
2018-09-23T04:10:12.596Z,15.15
2018-09-23T04:12:43.674Z,17.57
2018-09-23T04:15:15.498Z,18.27
2018-09-23T04:17:48.213Z,16.73
2018-09-23T04:20:19.519Z,20.27
2018-09-23T04:22:51.692Z,15.30
2018-09-23T04:25:22.841Z,11.18
2018-09-23T04:27:55.069Z,19.62
2018-09-23T04:30:27.381Z,15.35
2018-09-23T04:32:58.954Z,11.80
2018-09-23T04:35:31.017Z,18.52
2018-09-23T04:38:01.207Z,14.73
2018-09-23T04:40:31.348Z,20.17
2018-09-23T04:43:03.392Z,17.75
2018-09-23T04:45:33.472Z,18.65
2018-09-23T04:48:03.337Z,13.62
2018-09-23T04:50:33.980Z,18.70
2018-09-23T04:53:06.187Z,14.78
2018-09-23T04:55:37.711Z,16.80
2018-09-23T04:58:09.328Z,13.28
2018-09-23T05:00:40.167Z,13.90
2018-09-23T05:03:11.819Z,21.45
2018-09-23T05:05:41.962Z,17.85
2018-09-23T05:08:12.944Z,21.48
2018-09-23T05:10:43.351Z,21.65
2018-09-23T05:13:13.527Z,21.35
2018-09-23T05:15:44.321Z,15.75
2018-09-23T05:18:15.512Z,20.20
2018-09-23T05:20:45.600Z,19.42
2018-09-23T05:23:16.418Z,15.68
2018-09-23T05:25:47.555Z,13.72
2018-09-23T05:28:17.721Z,20.05
2018-09-23T05:30:50.144Z,20.60
2018-09-23T05:33:20.126Z,21.68
2018-09-23T05:35:52.177Z,21.75
2018-09-23T05:38:22.351Z,20.32
2018-09-23T05:40:53.332Z,14.60
2018-09-23T05:43:24.556Z,20.12
2018-09-23T05:45:58.693Z,14.43
2018-09-23T05:48:28.701Z,20.57
2018-09-23T05:50:59.343Z,14.65
2018-09-23T05:53:29.698Z,18.02
2018-09-23T05:56:00.859Z,14.05
2018-09-23T05:58:31.078Z,17.73
2018-09-23T06:01:01.318Z,20.55
2018-09-23T06:03:33.037Z,21.33
2018-09-23T06:06:03.050Z,14.55
2018-09-23T06:11:18.645Z,8.33
2018-09-23T06:13:49.650Z,11.40
2018-09-23T06:16:21.921Z,13.50
2018-09-23T06:18:52.754Z,20.57
2018-09-23T06:21:24.705Z,13.60
2018-09-23T06:23:56.064Z,17.75
2018-09-23T06:26:26.363Z,11.00
2018-09-23T06:28:58.369Z,6.12
2018-09-23T06:31:30.725Z,19.00
2018-09-23T06:34:00.871Z,13.85
2018-09-23T06:36:31.918Z,19.27
2018-09-23T06:39:02.674Z,15.08
2018-09-23T06:41:35.844Z,18.92
2018-09-23T06:44:06.913Z,15.13
2018-09-23T06:46:41.891Z,14.85
2018-09-23T06:49:11.845Z,9.63
2018-09-23T06:53:25.653Z,16.32
2018-09-23T06:55:57.541Z,17.42
2018-09-23T06:58:27.578Z,14.30
2018-09-23T07:01:00.206Z,16.42
2018-09-23T07:03:32.693Z,18.80
2018-09-23T07:06:06.141Z,14.68
2018-09-23T07:08:38.761Z,18.35
2018-09-23T07:11:09.186Z,17.73
2018-09-23T07:13:41.592Z,14.55
2018-09-23T07:16:13.620Z,17.90
2018-09-23T07:18:43.592Z,14.68
2018-09-23T07:21:13.549Z,11.30
2018-09-23T07:23:43.490Z,14.93
2018-09-23T07:26:13.474Z,12.82
2018-09-23T07:28:43.608Z,13.62
2018-09-23T07:31:17.204Z,14.35
2018-09-23T07:33:47.523Z,12.43
2018-09-23T07:36:18.271Z,9.30
2018-09-23T07:38:48.793Z,14.20
2018-09-23T07:41:19.229Z,13.15
2018-09-23T07:43:50.154Z,10.82
2018-09-23T07:46:21.509Z,13.93
2018-09-23T07:48:52.677Z,7.30
2018-09-23T07:51:23.276Z,13.38
2018-09-23T07:53:53.681Z,10.85
2018-09-23T07:56:25.057Z,11.68
2018-09-23T07:58:56.070Z,12.25
2018-09-23T08:01:26.841Z,12.10
2018-09-23T08:03:58.254Z,14.43
2018-09-23T08:06:29.136Z,13.50
2018-09-23T08:09:00.459Z,11.48
2018-09-23T08:11:31.302Z,11.00
2018-09-23T08:14:01.408Z,12.33
2018-09-23T08:16:31.743Z,11.03
2018-09-23T08:19:01.875Z,8.95
2018-09-23T08:21:34.015Z,8.63
2018-09-23T08:24:04.858Z,8.15
2018-09-23T08:26:37.812Z,10.72
2018-09-23T08:29:08.576Z,9.20
2018-09-23T08:31:38.598Z,12.47
2018-09-23T08:34:10.221Z,8.80
2018-09-23T08:36:40.424Z,9.00
2018-09-23T08:39:10.794Z,11.30
2018-09-23T08:41:40.817Z,11.85
2018-09-23T08:44:10.863Z,11.35
2018-09-23T08:46:41.158Z,9.68
2018-09-23T08:49:11.113Z,10.90
2018-09-23T08:51:41.614Z,12.10
2018-09-23T08:54:11.384Z,11.93
2018-09-23T08:56:41.426Z,11.40
2018-09-23T08:59:11.462Z,10.40
2018-09-23T09:01:41.045Z,7.45
2018-09-23T09:04:11.884Z,9.48
2018-09-23T09:06:41.921Z,8.65
2018-09-23T09:09:11.828Z,10.28
2018-09-23T09:11:41.857Z,9.45
2018-09-23T09:14:11.937Z,9.28
2018-09-23T09:16:42.835Z,7.67
2018-09-23T09:19:13.317Z,7.25
2018-09-23T09:21:43.349Z,8.65
2018-09-23T09:24:13.523Z,6.78
2018-09-23T09:26:43.692Z,7.30
2018-09-23T09:31:01.943Z,5.65
2018-09-23T09:33:32.112Z,5.97
2018-09-23T09:36:03.865Z,7.12
2018-09-23T09:38:33.911Z,4.78
2018-09-23T09:41:06.106Z,7.10
2018-09-23T09:43:37.711Z,5.67
2018-09-23T09:46:08.290Z,5.72
2018-09-23T09:48:38.160Z,6.20
2018-09-23T09:51:11.057Z,5.00
2018-09-23T09:53:41.622Z,3.10
2018-09-23T09:56:11.956Z,4.55
2018-09-23T09:58:42.248Z,4.85
2018-09-23T10:01:12.536Z,5.05
2018-09-23T10:03:42.817Z,4.08
2018-09-23T10:06:13.214Z,3.70
2018-09-23T10:08:44.069Z,3.05
2018-09-23T10:11:14.238Z,4.00
2018-09-23T10:13:44.878Z,4.33
2018-09-23T10:16:15.062Z,3.42
2018-09-23T10:18:45.134Z,3.10
2018-09-23T10:21:17.153Z,3.60
2018-09-23T10:23:47.643Z,2.90
2018-09-23T10:26:17.914Z,4.12
2018-09-23T10:28:48.060Z,3.65
2018-09-23T10:31:19.799Z,3.70
2018-09-23T10:33:50.620Z,3.60
2018-09-23T10:36:21.297Z,1.65
2018-09-23T10:38:51.419Z,3.80
2018-09-23T10:41:23.320Z,4.03
2018-09-23T10:43:53.373Z,3.17
2018-09-23T10:46:23.929Z,3.12
2018-09-23T10:48:54.347Z,3.10
2018-09-23T10:51:24.605Z,3.70
2018-09-23T10:53:55.888Z,2.30
2018-09-23T10:56:26.056Z,3.37
2018-09-23T10:58:59.406Z,3.20
2018-09-23T11:01:30.842Z,2.98
2018-09-23T11:04:01.291Z,3.40
2018-09-23T11:06:32.954Z,3.52
2018-09-23T11:09:03.183Z,3.10
2018-09-23T11:11:33.509Z,2.10
2018-09-23T11:14:03.834Z,2.77
2018-09-23T11:16:35.489Z,3.27
2018-09-23T11:19:05.908Z,3.35
2018-09-23T11:21:35.872Z,3.08
2018-09-23T11:24:06.677Z,2.80
2018-09-23T11:26:36.897Z,2.77
2018-09-23T11:29:07.251Z,1.92
2018-09-23T11:31:37.447Z,1.80
2018-09-23T11:34:09.600Z,1.50
2018-09-23T11:36:40.465Z,4.15
2018-09-23T11:39:14.452Z,2.10
2018-09-23T11:41:44.880Z,2.00
2018-09-23T11:44:14.887Z,1.62
2018-09-23T11:46:45.942Z,2.70
2018-09-23T11:49:15.975Z,3.12
2018-09-23T11:51:46.330Z,1.57
2018-09-23T11:54:16.947Z,1.32
2018-09-23T11:56:47.355Z,3.12
2018-09-23T11:59:17.640Z,3.50
2018-09-23T12:01:47.726Z,5.95
2018-09-23T12:04:18.131Z,2.50
2018-09-23T12:06:49.957Z,2.83
2018-09-23T12:09:20.431Z,2.67
2018-09-23T12:11:50.624Z,3.30
2018-09-23T12:14:20.919Z,3.50
2018-09-23T12:16:51.956Z,3.67
2018-09-23T12:19:21.915Z,3.40
2018-09-23T12:21:52.608Z,3.00
2018-09-23T12:24:22.622Z,3.75
2018-09-23T12:26:52.644Z,4.50
2018-09-23T12:29:22.250Z,4.50
2018-09-23T12:31:52.268Z,3.47
2018-09-23T12:34:21.828Z,2.65
2018-09-23T12:36:51.454Z,4.85
2018-09-23T12:39:21.177Z,5.22
2018-09-23T12:41:50.900Z,5.58
2018-09-23T12:44:20.780Z,3.00
2018-09-23T12:46:50.960Z,2.50
2018-09-23T12:49:21.463Z,1.47
2018-09-23T12:51:51.410Z,2.00
2018-09-23T12:54:22.264Z,0.85
2018-09-23T12:56:52.382Z,1.57
2018-09-23T12:59:22.777Z,1.20
2018-09-23T13:01:53.118Z,1.00
2018-09-23T13:04:23.597Z,1.17
2018-09-23T13:06:54.281Z,1.20
2018-09-23T13:09:24.450Z,1.02
2018-09-23T13:11:55.330Z,1.42
2018-09-23T13:14:25.507Z,0.85
2018-09-23T13:16:55.846Z,0.98
2018-09-23T13:19:26.970Z,1.25
2018-09-23T13:21:57.911Z,1.10
2018-09-23T13:24:30.270Z,1.17
2018-09-23T13:29:49.369Z,1.30
2018-09-23T13:32:19.445Z,1.70
2018-09-23T13:34:54.124Z,3.72
2018-09-23T13:37:25.232Z,1.95
2018-09-23T13:39:55.335Z,1.80
2018-09-23T13:42:25.650Z,1.50
2018-09-23T13:44:55.566Z,1.70
2018-09-23T13:47:27.942Z,1.77
2018-09-23T13:49:58.566Z,1.90
2018-09-23T13:52:28.850Z,53.60
2018-09-23T13:54:59.394Z,2.00
2018-09-23T13:57:30.116Z,2.10
2018-09-23T14:00:01.282Z,2.20
2018-09-23T14:02:32.087Z,1.30
2018-09-23T14:05:04.094Z,2.00
2018-09-23T14:07:34.536Z,1.90
2018-09-23T14:10:05.012Z,2.30
2018-09-23T14:12:35.377Z,2.30
2018-09-23T14:15:05.984Z,2.10
2018-09-23T14:17:38.165Z,2.42
2018-09-23T14:20:08.657Z,1.65
2018-09-23T14:22:39.028Z,2.12
2018-09-23T14:25:10.491Z,2.10
2018-09-23T14:27:41.779Z,2.10
2018-09-23T14:30:11.897Z,4.37
2018-09-23T14:32:42.110Z,2.10
2018-09-23T14:35:12.498Z,2.10
2018-09-23T14:37:43.310Z,1.57
2018-09-23T14:40:13.603Z,3.75
2018-09-23T14:42:44.159Z,1.42
2018-09-23T14:45:14.275Z,1.40
2018-09-23T14:50:25.266Z,1.50
2018-09-23T14:52:56.208Z,1.55
2018-09-23T14:55:30.866Z,1.20
2018-09-23T15:00:40.649Z,1.70
2018-09-23T15:03:11.428Z,1.82
2018-09-23T15:05:42.942Z,1.87
2018-09-23T15:08:13.378Z,1.75
2018-09-23T15:10:43.803Z,1.75
2018-09-23T15:13:14.050Z,1.55
2018-09-23T15:15:57.665Z,1.72
2018-09-23T15:18:39.750Z,1.60
2018-09-23T15:23:57.608Z,1.50
2018-09-23T15:26:36.797Z,2.47
2018-09-23T15:29:14.780Z,2.15
2018-09-23T15:31:47.522Z,1.98
2018-09-23T15:34:23.094Z,2.92
2018-09-23T15:36:57.199Z,2.50
2018-09-23T15:39:31.096Z,2.33
2018-09-23T15:42:05.455Z,2.50
2018-09-23T15:44:38.755Z,2.27
2018-09-23T15:47:11.514Z,2.17
2018-09-23T15:49:52.803Z,2.30
2018-09-23T15:52:25.589Z,2.22
2018-09-23T15:54:58.991Z,2.22
2018-09-23T15:57:30.819Z,2.35
2018-09-23T16:00:05.047Z,2.20
2018-09-23T16:02:37.564Z,2.22
2018-09-23T16:05:12.965Z,1.72
2018-09-23T16:07:45.651Z,1.87
2018-09-23T16:10:17.302Z,1.82
2018-09-23T16:12:50.593Z,2.90
2018-09-23T16:15:32.180Z,1.70
2018-09-23T16:18:05.132Z,1.47
2018-09-23T16:20:37.345Z,1.98
2018-09-23T16:23:09.249Z,1.50
2018-09-23T16:25:42.323Z,0.98
2018-09-23T16:28:16.607Z,1.42
2018-09-23T16:30:47.118Z,2.00
2018-09-23T16:33:17.139Z,1.22
2018-09-23T16:35:50.034Z,1.12
2018-09-23T16:38:20.514Z,1.47
2018-09-23T16:40:51.284Z,1.92
2018-09-23T16:43:21.519Z,1.30
2018-09-23T16:45:51.894Z,1.47
2018-09-23T16:48:22.115Z,1.92
2018-09-23T16:51:06.309Z,1.67
2018-09-23T16:56:39.537Z,1.55
2018-09-23T17:05:26.260Z,1.90
2018-09-23T17:23:17.714Z,2.25
2018-09-23T17:25:48.279Z,2.52
2018-09-23T17:28:18.515Z,2.60
2018-09-23T17:30:48.808Z,2.60
2018-09-23T17:33:18.752Z,2.52
2018-09-23T17:35:48.752Z,2.60
2018-09-23T17:38:18.785Z,3.42
2018-09-23T17:40:52.197Z,2.80
2018-09-23T17:43:25.722Z,3.10
2018-09-23T17:45:57.377Z,2.52
2018-09-23T17:48:27.917Z,3.85
2018-09-23T17:50:58.374Z,2.50
2018-09-23T17:53:30.302Z,2.58
2018-09-23T17:56:00.563Z,2.35
2018-09-23T17:58:31.709Z,2.33
2018-09-23T18:01:02.983Z,1.82
2018-09-23T18:03:35.554Z,2.10
2018-09-23T18:06:06.823Z,2.42
2018-09-23T18:08:38.100Z,2.05
2018-09-23T18:11:08.964Z,1.90
2018-09-23T18:13:38.998Z,1.80
2018-09-23T18:16:10.332Z,1.87
2018-09-23T18:18:40.587Z,1.85
2018-09-23T18:21:12.884Z,1.77
2018-09-23T18:23:43.661Z,7.78
2018-09-23T18:26:13.691Z,1.90
2018-09-23T18:28:43.895Z,2.05
2018-09-23T18:31:16.290Z,1.37
2018-09-23T18:33:47.019Z,0.80
2018-09-23T18:36:17.139Z,0.72
2018-09-23T18:38:47.270Z,1.32
2018-09-23T18:41:17.686Z,1.20
2018-09-23T18:43:47.947Z,1.62
2018-09-23T18:46:19.056Z,1.40
2018-09-23T18:48:49.208Z,1.80
2018-09-23T18:51:19.373Z,1.60
2018-09-23T18:53:55.092Z,1.70
2018-09-23T18:56:25.422Z,1.90
2018-09-23T18:58:56.205Z,2.02
2018-09-23T19:01:26.846Z,1.67
2018-09-23T19:03:59.127Z,2.70
2018-09-23T19:06:31.599Z,1.70
2018-09-23T19:09:03.341Z,1.70
2018-09-23T19:11:34.282Z,1.40
2018-09-23T19:14:05.426Z,1.70
2018-09-23T19:16:36.757Z,2.10
2018-09-23T19:19:08.008Z,5.20
2018-09-23T19:21:38.763Z,1.20
2018-09-23T19:24:10.403Z,1.65
2018-09-23T19:26:42.427Z,1.50
2018-09-23T19:29:15.465Z,1.17
2018-09-23T19:31:46.723Z,1.32
2018-09-23T19:34:18.263Z,1.55
2018-09-23T19:36:49.464Z,1.40
2018-09-23T19:39:20.085Z,1.30
2018-09-23T19:41:53.311Z,1.52
2018-09-23T19:44:23.717Z,1.50
2018-09-23T19:46:54.795Z,1.17
2018-09-23T19:49:25.797Z,1.10
2018-09-23T19:51:57.284Z,1.07
2018-09-23T19:54:27.462Z,1.30
2018-09-23T19:57:01.414Z,1.30
2018-09-23T19:59:32.347Z,1.30
2018-09-23T20:02:03.722Z,0.55
2018-09-23T20:04:33.685Z,0.90
2018-09-23T20:07:04.471Z,1.10
2018-09-23T20:09:35.914Z,0.37
2018-09-23T20:12:07.147Z,0.95
2018-09-23T20:14:38.193Z,0.90
2018-09-23T20:17:09.708Z,1.00
2018-09-23T20:19:40.757Z,0.90
2018-09-23T20:22:13.036Z,1.27
2018-09-23T20:24:42.999Z,1.10
2018-09-23T20:27:13.056Z,1.30
2018-09-23T20:29:44.486Z,1.07
2018-09-23T20:32:14.531Z,0.70
2018-09-23T20:34:45.506Z,1.27
2018-09-23T20:37:15.971Z,1.22
2018-09-23T20:39:47.786Z,0.95
2018-09-23T20:42:17.760Z,0.95
2018-09-23T20:44:48.795Z,0.75
2018-09-23T20:47:19.135Z,1.05
2018-09-23T20:49:49.492Z,1.00
2018-09-23T20:52:19.863Z,1.17
2018-09-23T20:54:50.032Z,1.27
2018-09-23T20:57:20.205Z,1.00
2018-09-23T20:59:50.452Z,1.10
2018-09-23T21:02:21.273Z,0.70
2018-09-23T21:04:51.460Z,1.10
2018-09-23T21:07:21.494Z,1.05
2018-09-23T21:09:51.613Z,0.50
2018-09-23T21:12:21.833Z,0.78
2018-09-23T21:14:53.184Z,1.00
2018-09-23T21:17:27.207Z,1.12
2018-09-23T21:19:58.953Z,2.50
2018-09-23T21:22:29.033Z,0.80
2018-09-23T21:24:59.125Z,0.95
2018-09-23T21:27:29.611Z,0.62
2018-09-23T21:29:59.843Z,0.93
2018-09-23T21:32:30.117Z,4.85
2018-09-23T21:35:00.294Z,1.20
2018-09-23T21:37:31.671Z,0.80
2018-09-23T21:40:02.520Z,1.35
2018-09-23T21:42:32.884Z,1.15
2018-09-23T21:45:04.590Z,1.00
2018-09-23T21:47:36.383Z,1.05
2018-09-23T21:50:07.008Z,1.02
2018-09-23T21:52:44.288Z,1.40
2018-09-23T21:55:22.282Z,1.07
2018-09-23T21:58:10.048Z,0.65
2018-09-23T22:00:42.235Z,1.17
2018-09-23T22:03:13.579Z,0.95
2018-09-23T22:05:43.577Z,0.88
2018-09-23T22:08:14.311Z,0.65
2018-09-23T22:10:45.265Z,1.00
2018-09-23T22:13:16.205Z,0.85
2018-09-23T22:15:47.239Z,1.45
2018-09-23T22:18:17.606Z,1.12
2018-09-23T22:20:47.592Z,0.65
2018-09-23T22:23:18.636Z,1.32
2018-09-23T22:25:50.367Z,1.62
2018-09-23T22:28:20.502Z,1.07
2018-09-23T22:30:50.529Z,0.78
2018-09-23T22:33:21.132Z,1.10
2018-09-23T22:35:52.173Z,0.98
2018-09-23T22:38:23.865Z,1.10
2018-09-23T22:40:55.212Z,0.98
2018-09-23T22:43:25.605Z,1.10
2018-09-23T22:45:55.725Z,1.00
2018-09-23T22:49:39.835Z,1.00
2018-09-23T22:52:09.996Z,1.30
2018-09-23T22:54:40.219Z,1.12
2018-09-23T22:57:10.574Z,1.30
2018-09-23T22:59:41.531Z,1.20
2018-09-23T23:02:13.703Z,1.35
2018-09-23T23:04:46.774Z,1.00
2018-09-23T23:07:19.845Z,1.20
2018-09-23T23:09:49.845Z,0.70
2018-09-23T23:12:19.903Z,0.40
2018-09-23T23:14:50.035Z,1.62
2018-09-23T23:17:20.513Z,1.20
2018-09-23T23:19:50.537Z,1.20
2018-09-23T23:22:21.970Z,1.32
2018-09-23T23:24:55.177Z,1.22
2018-09-23T23:27:25.604Z,0.95
2018-09-23T23:29:57.247Z,0.50
2018-09-23T23:32:27.249Z,1.35
2018-09-23T23:34:57.265Z,0.90
2018-09-23T23:37:27.180Z,1.02
2018-09-23T23:39:57.197Z,0.80
2018-09-23T23:42:28.360Z,0.75
2018-09-23T23:44:58.378Z,0.90
2018-09-23T23:47:28.503Z,0.90
2018-09-23T23:49:58.604Z,1.45
2018-09-23T23:52:28.770Z,0.98
2018-09-23T23:54:58.739Z,0.70
2018-09-23T23:57:28.771Z,1.10
2018-09-23T23:59:58.800Z,0.90
